sensor_id;sensor_type;location;lat;lon;timestamp;P1;durP1;ratioP1;P2;durP2;ratioP2
71038;SDS011;58692;43.212;27.908;2023-02-28T00:01:40;7.33;;;3.60;;
71038;SDS011;58692;43.212;27.908;2023-02-28T00:04:05;6.73;;;3.60;;
71038;SDS011;58692;43.212;27.908;2023-02-28T00:06:34;7.60;;;3.33;;
71038;SDS011;58692;43.212;27.908;2023-02-28T00:08:59;6.30;;;3.10;;
71038;SDS011;58692;43.212;27.908;2023-02-28T00:11:25;7.63;;;3.40;;
71038;SDS011;58692;43.212;27.908;2023-02-28T00:13:50;7.60;;;3.33;;
71038;SDS011;58692;43.212;27.908;2023-02-28T00:16:17;6.60;;;3.10;;
71038;SDS011;58692;43.212;27.908;2023-02-28T00:18:45;7.15;;;3.50;;
71038;SDS011;58692;43.212;27.908;2023-02-28T00:21:12;7.78;;;3.30;;
71038;SDS011;58692;43.212;27.908;2023-02-28T00:23:37;6.93;;;3.37;;
71038;SDS011;58692;43.212;27.908;2023-02-28T00:26:03;8.57;;;3.55;;
71038;SDS011;58692;43.212;27.908;2023-02-28T00:28:29;7.43;;;3.30;;
71038;SDS011;58692;43.212;27.908;2023-02-28T00:30:54;7.18;;;3.22;;
71038;SDS011;58692;43.212;27.908;2023-02-28T00:33:20;7.10;;;3.37;;
71038;SDS011;58692;43.212;27.908;2023-02-28T00:35:45;7.40;;;3.27;;
71038;SDS011;58692;43.212;27.908;2023-02-28T00:38:12;8.30;;;3.22;;
71038;SDS011;58692;43.212;27.908;2023-02-28T00:40:38;7.22;;;3.50;;
71038;SDS011;58692;43.212;27.908;2023-02-28T00:43:04;6.63;;;3.43;;
71038;SDS011;58692;43.212;27.908;2023-02-28T00:45:30;7.07;;;3.40;;
71038;SDS011;58692;43.212;27.908;2023-02-28T00:47:56;5.83;;;3.20;;
71038;SDS011;58692;43.212;27.908;2023-02-28T00:50:21;5.95;;;3.10;;
71038;SDS011;58692;43.212;27.908;2023-02-28T00:52:47;8.47;;;3.40;;
71038;SDS011;58692;43.212;27.908;2023-02-28T00:55:13;8.23;;;3.70;;
71038;SDS011;58692;43.212;27.908;2023-02-28T00:57:39;5.77;;;2.90;;
71038;SDS011;58692;43.212;27.908;2023-02-28T01:00:05;7.30;;;3.30;;
71038;SDS011;58692;43.212;27.908;2023-02-28T01:02:31;7.07;;;3.35;;
71038;SDS011;58692;43.212;27.908;2023-02-28T01:04:57;6.07;;;3.27;;
71038;SDS011;58692;43.212;27.908;2023-02-28T01:07:22;7.93;;;3.57;;
71038;SDS011;58692;43.212;27.908;2023-02-28T01:09:48;6.95;;;3.45;;
71038;SDS011;58692;43.212;27.908;2023-02-28T01:12:15;8.13;;;4.35;;
71038;SDS011;58692;43.212;27.908;2023-02-28T01:14:41;6.93;;;3.65;;
71038;SDS011;58692;43.212;27.908;2023-02-28T01:17:06;7.30;;;3.70;;
71038;SDS011;58692;43.212;27.908;2023-02-28T01:19:32;7.53;;;3.80;;
71038;SDS011;58692;43.212;27.908;2023-02-28T01:22:00;8.07;;;3.90;;
71038;SDS011;58692;43.212;27.908;2023-02-28T01:24:28;7.57;;;3.80;;
71038;SDS011;58692;43.212;27.908;2023-02-28T01:26:53;7.22;;;3.83;;
71038;SDS011;58692;43.212;27.908;2023-02-28T01:29:19;8.40;;;4.47;;
71038;SDS011;58692;43.212;27.908;2023-02-28T01:31:44;8.40;;;4.05;;
71038;SDS011;58692;43.212;27.908;2023-02-28T01:34:10;8.13;;;3.87;;
71038;SDS011;58692;43.212;27.908;2023-02-28T01:36:35;8.30;;;4.20;;
71038;SDS011;58692;43.212;27.908;2023-02-28T01:39:01;8.00;;;4.50;;
71038;SDS011;58692;43.212;27.908;2023-02-28T01:41:29;8.88;;;4.80;;
71038;SDS011;58692;43.212;27.908;2023-02-28T01:43:59;9.43;;;4.40;;
71038;SDS011;58692;43.212;27.908;2023-02-28T01:46:28;10.45;;;5.07;;
71038;SDS011;58692;43.212;27.908;2023-02-28T01:49:05;8.52;;;4.97;;
71038;SDS011;58692;43.212;27.908;2023-02-28T01:51:38;9.05;;;4.55;;
71038;SDS011;58692;43.212;27.908;2023-02-28T01:54:16;8.65;;;4.57;;
71038;SDS011;58692;43.212;27.908;2023-02-28T01:56:47;10.90;;;4.77;;
71038;SDS011;58692;43.212;27.908;2023-02-28T01:59:25;8.75;;;4.63;;
71038;SDS011;58692;43.212;27.908;2023-02-28T02:01:54;8.48;;;4.90;;
71038;SDS011;58692;43.212;27.908;2023-02-28T02:04:21;8.30;;;4.65;;
71038;SDS011;58692;43.212;27.908;2023-02-28T02:06:50;9.00;;;4.90;;
71038;SDS011;58692;43.212;27.908;2023-02-28T02:09:17;7.90;;;4.53;;
71038;SDS011;58692;43.212;27.908;2023-02-28T02:11:42;9.20;;;4.73;;
71038;SDS011;58692;43.212;27.908;2023-02-28T02:14:21;7.88;;;4.18;;
71038;SDS011;58692;43.212;27.908;2023-02-28T02:17:32;7.25;;;3.63;;
71038;SDS011;58692;43.212;27.908;2023-02-28T02:24:47;8.63;;;3.80;;
71038;SDS011;58692;43.212;27.908;2023-02-28T02:30:27;7.18;;;3.72;;
71038;SDS011;58692;43.212;27.908;2023-02-28T02:35:47;12.75;;;4.03;;
71038;SDS011;58692;43.212;27.908;2023-02-28T02:43:40;6.47;;;3.50;;
71038;SDS011;58692;43.212;27.908;2023-02-28T02:46:27;7.28;;;3.70;;
71038;SDS011;58692;43.212;27.908;2023-02-28T02:48:58;6.97;;;3.80;;
71038;SDS011;58692;43.212;27.908;2023-02-28T02:51:29;12.80;;;6.40;;
71038;SDS011;58692;43.212;27.908;2023-02-28T02:53:59;8.68;;;4.57;;
71038;SDS011;58692;43.212;27.908;2023-02-28T02:56:31;6.68;;;3.25;;
71038;SDS011;58692;43.212;27.908;2023-02-28T02:59:00;6.50;;;3.70;;
71038;SDS011;58692;43.212;27.908;2023-02-28T03:01:28;7.28;;;3.30;;
71038;SDS011;58692;43.212;27.908;2023-02-28T03:03:57;6.43;;;3.50;;
71038;SDS011;58692;43.212;27.908;2023-02-28T03:06:26;6.85;;;3.42;;
71038;SDS011;58692;43.212;27.908;2023-02-28T03:08:52;6.35;;;3.22;;
71038;SDS011;58692;43.212;27.908;2023-02-28T03:11:18;7.53;;;3.50;;
71038;SDS011;58692;43.212;27.908;2023-02-28T03:21:33;6.60;;;3.38;;
71038;SDS011;58692;43.212;27.908;2023-02-28T03:24:05;6.95;;;3.10;;
71038;SDS011;58692;43.212;27.908;2023-02-28T03:26:36;8.93;;;3.20;;
71038;SDS011;58692;43.212;27.908;2023-02-28T03:31:44;7.05;;;3.22;;
71038;SDS011;58692;43.212;27.908;2023-02-28T03:37:03;6.53;;;3.35;;
71038;SDS011;58692;43.212;27.908;2023-02-28T03:39:35;6.75;;;3.50;;
71038;SDS011;58692;43.212;27.908;2023-02-28T03:44:50;7.13;;;3.78;;
71038;SDS011;58692;43.212;27.908;2023-02-28T03:47:21;7.57;;;3.67;;
71038;SDS011;58692;43.212;27.908;2023-02-28T03:49:54;6.70;;;3.58;;
71038;SDS011;58692;43.212;27.908;2023-02-28T03:52:25;7.82;;;3.95;;
71038;SDS011;58692;43.212;27.908;2023-02-28T03:54:56;8.27;;;4.10;;
71038;SDS011;58692;43.212;27.908;2023-02-28T03:59:56;9.07;;;4.07;;
71038;SDS011;58692;43.212;27.908;2023-02-28T04:02:25;7.90;;;4.22;;
71038;SDS011;58692;43.212;27.908;2023-02-28T04:04:52;8.60;;;4.13;;
71038;SDS011;58692;43.212;27.908;2023-02-28T04:07:18;8.00;;;4.00;;
71038;SDS011;58692;43.212;27.908;2023-02-28T04:09:44;8.30;;;4.18;;
71038;SDS011;58692;43.212;27.908;2023-02-28T04:12:09;8.00;;;4.40;;
71038;SDS011;58692;43.212;27.908;2023-02-28T04:14:35;8.47;;;4.37;;
71038;SDS011;58692;43.212;27.908;2023-02-28T04:17:00;8.50;;;4.20;;
71038;SDS011;58692;43.212;27.908;2023-02-28T04:19:26;7.83;;;4.40;;
71038;SDS011;58692;43.212;27.908;2023-02-28T04:21:52;9.47;;;4.47;;
71038;SDS011;58692;43.212;27.908;2023-02-28T04:24:20;9.93;;;4.60;;
71038;SDS011;58692;43.212;27.908;2023-02-28T04:26:49;9.05;;;4.68;;
71038;SDS011;58692;43.212;27.908;2023-02-28T04:29:18;9.32;;;4.78;;
71038;SDS011;58692;43.212;27.908;2023-02-28T04:31:47;9.32;;;4.68;;
71038;SDS011;58692;43.212;27.908;2023-02-28T04:34:13;8.80;;;4.50;;
71038;SDS011;58692;43.212;27.908;2023-02-28T04:36:39;11.82;;;4.88;;
71038;SDS011;58692;43.212;27.908;2023-02-28T04:39:04;9.13;;;4.40;;
71038;SDS011;58692;43.212;27.908;2023-02-28T04:41:30;8.83;;;4.30;;
71038;SDS011;58692;43.212;27.908;2023-02-28T04:43:55;8.10;;;4.40;;
71038;SDS011;58692;43.212;27.908;2023-02-28T04:46:21;9.47;;;4.37;;
71038;SDS011;58692;43.212;27.908;2023-02-28T04:48:48;9.15;;;4.88;;
71038;SDS011;58692;43.212;27.908;2023-02-28T04:51:15;10.65;;;5.03;;
71038;SDS011;58692;43.212;27.908;2023-02-28T04:53:42;10.57;;;4.95;;
71038;SDS011;58692;43.212;27.908;2023-02-28T04:56:10;10.32;;;5.22;;
71038;SDS011;58692;43.212;27.908;2023-02-28T04:58:38;11.30;;;5.73;;
71038;SDS011;58692;43.212;27.908;2023-02-28T05:01:06;10.57;;;5.03;;
71038;SDS011;58692;43.212;27.908;2023-02-28T05:03:41;11.35;;;5.60;;
71038;SDS011;58692;43.212;27.908;2023-02-28T05:06:08;11.95;;;5.65;;
71038;SDS011;58692;43.212;27.908;2023-02-28T05:08:34;12.13;;;5.80;;
71038;SDS011;58692;43.212;27.908;2023-02-28T05:11:00;13.47;;;6.07;;
71038;SDS011;58692;43.212;27.908;2023-02-28T05:13:26;14.13;;;6.00;;
71038;SDS011;58692;43.212;27.908;2023-02-28T05:15:53;13.68;;;6.00;;
71038;SDS011;58692;43.212;27.908;2023-02-28T05:18:19;13.13;;;6.93;;
71038;SDS011;58692;43.212;27.908;2023-02-28T05:20:45;15.75;;;6.85;;
71038;SDS011;58692;43.212;27.908;2023-02-28T05:23:11;15.93;;;7.13;;
71038;SDS011;58692;43.212;27.908;2023-02-28T05:25:38;13.30;;;6.10;;
71038;SDS011;58692;43.212;27.908;2023-02-28T05:28:04;15.27;;;7.13;;
71038;SDS011;58692;43.212;27.908;2023-02-28T05:30:31;16.98;;;7.15;;
71038;SDS011;58692;43.212;27.908;2023-02-28T05:32:58;15.98;;;7.85;;
71038;SDS011;58692;43.212;27.908;2023-02-28T05:35:28;16.92;;;7.50;;
71038;SDS011;58692;43.212;27.908;2023-02-28T05:37:55;14.37;;;6.60;;
71038;SDS011;58692;43.212;27.908;2023-02-28T05:40:20;19.48;;;8.00;;
71038;SDS011;58692;43.212;27.908;2023-02-28T05:42:50;27.33;;;9.57;;
71038;SDS011;58692;43.212;27.908;2023-02-28T05:45:16;20.63;;;8.10;;
71038;SDS011;58692;43.212;27.908;2023-02-28T05:47:42;21.67;;;8.48;;
71038;SDS011;58692;43.212;27.908;2023-02-28T05:50:08;16.45;;;7.50;;
71038;SDS011;58692;43.212;27.908;2023-02-28T05:52:36;17.85;;;8.90;;
71038;SDS011;58692;43.212;27.908;2023-02-28T05:55:04;17.77;;;8.35;;
71038;SDS011;58692;43.212;27.908;2023-02-28T05:57:31;22.40;;;9.80;;
71038;SDS011;58692;43.212;27.908;2023-02-28T05:59:56;21.13;;;9.32;;
71038;SDS011;58692;43.212;27.908;2023-02-28T06:02:22;25.07;;;10.43;;
71038;SDS011;58692;43.212;27.908;2023-02-28T06:04:48;23.35;;;8.85;;
71038;SDS011;58692;43.212;27.908;2023-02-28T06:07:13;23.77;;;10.07;;
71038;SDS011;58692;43.212;27.908;2023-02-28T06:09:40;20.40;;;10.10;;
71038;SDS011;58692;43.212;27.908;2023-02-28T06:12:06;25.17;;;11.18;;
71038;SDS011;58692;43.212;27.908;2023-02-28T06:14:34;23.75;;;10.80;;
71038;SDS011;58692;43.212;27.908;2023-02-28T06:17:01;22.07;;;9.60;;
71038;SDS011;58692;43.212;27.908;2023-02-28T06:19:27;21.02;;;9.73;;
71038;SDS011;58692;43.212;27.908;2023-02-28T06:21:55;26.00;;;10.27;;
71038;SDS011;58692;43.212;27.908;2023-02-28T06:24:24;20.77;;;9.77;;
71038;SDS011;58692;43.212;27.908;2023-02-28T06:26:53;19.92;;;8.77;;
71038;SDS011;58692;43.212;27.908;2023-02-28T06:29:22;21.53;;;10.20;;
71038;SDS011;58692;43.212;27.908;2023-02-28T06:31:48;18.90;;;8.57;;
71038;SDS011;58692;43.212;27.908;2023-02-28T06:34:14;18.03;;;7.97;;
71038;SDS011;58692;43.212;27.908;2023-02-28T06:36:40;15.73;;;7.40;;
71038;SDS011;58692;43.212;27.908;2023-02-28T06:39:08;15.95;;;7.85;;
71038;SDS011;58692;43.212;27.908;2023-02-28T06:41:34;17.45;;;8.05;;
71038;SDS011;58692;43.212;27.908;2023-02-28T06:44:04;17.98;;;7.97;;
71038;SDS011;58692;43.212;27.908;2023-02-28T06:46:30;19.00;;;7.73;;
71038;SDS011;58692;43.212;27.908;2023-02-28T06:48:59;17.13;;;7.65;;
71038;SDS011;58692;43.212;27.908;2023-02-28T06:51:34;16.77;;;7.68;;
71038;SDS011;58692;43.212;27.908;2023-02-28T06:54:05;18.65;;;7.93;;
71038;SDS011;58692;43.212;27.908;2023-02-28T06:56:38;16.27;;;7.88;;
71038;SDS011;58692;43.212;27.908;2023-02-28T06:59:05;17.37;;;7.70;;
71038;SDS011;58692;43.212;27.908;2023-02-28T07:01:31;17.65;;;8.18;;
71038;SDS011;58692;43.212;27.908;2023-02-28T07:04:08;17.73;;;7.65;;
71038;SDS011;58692;43.212;27.908;2023-02-28T07:06:33;17.00;;;8.00;;
71038;SDS011;58692;43.212;27.908;2023-02-28T07:09:00;14.40;;;6.57;;
71038;SDS011;58692;43.212;27.908;2023-02-28T07:11:47;15.73;;;7.18;;
71038;SDS011;58692;43.212;27.908;2023-02-28T07:14:12;16.70;;;8.32;;
71038;SDS011;58692;43.212;27.908;2023-02-28T07:16:38;16.77;;;7.88;;
71038;SDS011;58692;43.212;27.908;2023-02-28T07:19:06;16.57;;;6.77;;
71038;SDS011;58692;43.212;27.908;2023-02-28T07:21:37;15.77;;;7.53;;
71038;SDS011;58692;43.212;27.908;2023-02-28T07:24:10;15.90;;;7.70;;
71038;SDS011;58692;43.212;27.908;2023-02-28T07:26:36;16.73;;;7.90;;
71038;SDS011;58692;43.212;27.908;2023-02-28T07:29:06;14.65;;;7.07;;
71038;SDS011;58692;43.212;27.908;2023-02-28T07:31:44;16.03;;;7.10;;
71038;SDS011;58692;43.212;27.908;2023-02-28T07:40:08;14.13;;;6.53;;
71038;SDS011;58692;43.212;27.908;2023-02-28T07:42:49;13.20;;;6.68;;
71038;SDS011;58692;43.212;27.908;2023-02-28T07:45:16;14.57;;;6.93;;
71038;SDS011;58692;43.212;27.908;2023-02-28T07:47:56;16.30;;;6.95;;
71038;SDS011;58692;43.212;27.908;2023-02-28T07:50:24;14.38;;;6.53;;
71038;SDS011;58692;43.212;27.908;2023-02-28T07:52:53;15.00;;;6.63;;
71038;SDS011;58692;43.212;27.908;2023-02-28T07:55:19;11.98;;;5.78;;
71038;SDS011;58692;43.212;27.908;2023-02-28T07:57:44;12.50;;;6.37;;
71038;SDS011;58692;43.212;27.908;2023-02-28T08:00:16;16.75;;;7.05;;
71038;SDS011;58692;43.212;27.908;2023-02-28T08:02:57;13.27;;;5.70;;
71038;SDS011;58692;43.212;27.908;2023-02-28T08:05:28;12.23;;;5.90;;
71038;SDS011;58692;43.212;27.908;2023-02-28T08:07:56;15.57;;;6.68;;
71038;SDS011;58692;43.212;27.908;2023-02-28T08:10:22;12.85;;;5.88;;
71038;SDS011;58692;43.212;27.908;2023-02-28T08:12:53;11.70;;;5.47;;
71038;SDS011;58692;43.212;27.908;2023-02-28T08:15:19;14.20;;;5.57;;
71038;SDS011;58692;43.212;27.908;2023-02-28T08:17:44;10.53;;;5.10;;
71038;SDS011;58692;43.212;27.908;2023-02-28T08:20:13;13.40;;;6.47;;
71038;SDS011;58692;43.212;27.908;2023-02-28T08:23:00;11.88;;;6.13;;
71038;SDS011;58692;43.212;27.908;2023-02-28T08:25:28;12.10;;;5.57;;
71038;SDS011;58692;43.212;27.908;2023-02-28T08:28:02;11.57;;;5.80;;
71038;SDS011;58692;43.212;27.908;2023-02-28T08:30:28;13.50;;;6.60;;
71038;SDS011;58692;43.212;27.908;2023-02-28T08:32:59;13.63;;;6.15;;
71038;SDS011;58692;43.212;27.908;2023-02-28T08:35:26;16.10;;;7.10;;
71038;SDS011;58692;43.212;27.908;2023-02-28T08:37:52;14.17;;;6.57;;
71038;SDS011;58692;43.212;27.908;2023-02-28T08:40:18;12.82;;;5.90;;
71038;SDS011;58692;43.212;27.908;2023-02-28T08:42:47;13.52;;;6.63;;
71038;SDS011;58692;43.212;27.908;2023-02-28T08:45:14;13.57;;;6.27;;
71038;SDS011;58692;43.212;27.908;2023-02-28T08:47:43;15.05;;;6.43;;
71038;SDS011;58692;43.212;27.908;2023-02-28T08:50:09;11.93;;;5.90;;
71038;SDS011;58692;43.212;27.908;2023-02-28T08:52:41;12.05;;;6.25;;
71038;SDS011;58692;43.212;27.908;2023-02-28T08:55:08;12.85;;;6.55;;
71038;SDS011;58692;43.212;27.908;2023-02-28T08:57:35;12.67;;;5.70;;
71038;SDS011;58692;43.212;27.908;2023-02-28T09:00:03;13.02;;;6.47;;
71038;SDS011;58692;43.212;27.908;2023-02-28T09:02:30;13.90;;;6.78;;
71038;SDS011;58692;43.212;27.908;2023-02-28T09:04:56;12.63;;;5.78;;
71038;SDS011;58692;43.212;27.908;2023-02-28T09:07:32;13.65;;;6.15;;
71038;SDS011;58692;43.212;27.908;2023-02-28T09:09:57;13.40;;;6.70;;
71038;SDS011;58692;43.212;27.908;2023-02-28T09:12:27;12.32;;;6.15;;
71038;SDS011;58692;43.212;27.908;2023-02-28T09:15:32;12.55;;;6.18;;
71038;SDS011;58692;43.212;27.908;2023-02-28T09:18:34;11.32;;;5.85;;
71038;SDS011;58692;43.212;27.908;2023-02-28T09:21:08;14.82;;;6.90;;
71038;SDS011;58692;43.212;27.908;2023-02-28T09:23:38;11.63;;;5.80;;
71038;SDS011;58692;43.212;27.908;2023-02-28T09:26:04;11.73;;;6.00;;
71038;SDS011;58692;43.212;27.908;2023-02-28T09:28:34;10.43;;;5.47;;
71038;SDS011;58692;43.212;27.908;2023-02-28T09:30:59;12.13;;;5.72;;
71038;SDS011;58692;43.212;27.908;2023-02-28T09:33:48;11.65;;;6.07;;
71038;SDS011;58692;43.212;27.908;2023-02-28T09:36:26;12.17;;;5.53;;
71038;SDS011;58692;43.212;27.908;2023-02-28T09:39:11;11.90;;;5.72;;
71038;SDS011;58692;43.212;27.908;2023-02-28T09:41:56;14.00;;;7.00;;
71038;SDS011;58692;43.212;27.908;2023-02-28T09:47:02;12.77;;;6.20;;
71038;SDS011;58692;43.212;27.908;2023-02-28T09:49:37;12.53;;;5.93;;
71038;SDS011;58692;43.212;27.908;2023-02-28T09:52:09;12.27;;;6.43;;
71038;SDS011;58692;43.212;27.908;2023-02-28T09:54:42;11.40;;;5.90;;
71038;SDS011;58692;43.212;27.908;2023-02-28T09:57:21;12.00;;;5.95;;
71038;SDS011;58692;43.212;27.908;2023-02-28T10:05:38;12.35;;;5.88;;
71038;SDS011;58692;43.212;27.908;2023-02-28T10:08:14;12.88;;;5.75;;
71038;SDS011;58692;43.212;27.908;2023-02-28T10:10:45;12.55;;;5.55;;
71038;SDS011;58692;43.212;27.908;2023-02-28T10:20:29;12.57;;;5.80;;
71038;SDS011;58692;43.212;27.908;2023-02-28T10:23:04;20.25;;;5.93;;
71038;SDS011;58692;43.212;27.908;2023-02-28T10:25:47;11.50;;;5.53;;
71038;SDS011;58692;43.212;27.908;2023-02-28T10:28:24;13.35;;;6.15;;
71038;SDS011;58692;43.212;27.908;2023-02-28T10:30:57;12.43;;;4.93;;
71038;SDS011;58692;43.212;27.908;2023-02-28T10:35:57;11.45;;;5.68;;
71038;SDS011;58692;43.212;27.908;2023-02-28T10:38:26;11.32;;;5.38;;
71038;SDS011;58692;43.212;27.908;2023-02-28T10:41:05;10.48;;;5.38;;
71038;SDS011;58692;43.212;27.908;2023-02-28T10:43:34;11.73;;;5.50;;
71038;SDS011;58692;43.212;27.908;2023-02-28T10:46:03;11.68;;;6.05;;
71038;SDS011;58692;43.212;27.908;2023-02-28T10:48:44;11.07;;;5.30;;
71038;SDS011;58692;43.212;27.908;2023-02-28T10:51:22;11.75;;;5.00;;
71038;SDS011;58692;43.212;27.908;2023-02-28T10:54:14;10.93;;;5.43;;
71038;SDS011;58692;43.212;27.908;2023-02-28T10:56:43;12.27;;;5.23;;
71038;SDS011;58692;43.212;27.908;2023-02-28T11:11:40;15.53;;;6.07;;
71038;SDS011;58692;43.212;27.908;2023-02-28T11:14:18;11.30;;;5.40;;
71038;SDS011;58692;43.212;27.908;2023-02-28T11:16:49;11.35;;;5.20;;
71038;SDS011;58692;43.212;27.908;2023-02-28T11:19:22;13.38;;;6.25;;
71038;SDS011;58692;43.212;27.908;2023-02-28T11:21:56;12.45;;;5.85;;
71038;SDS011;58692;43.212;27.908;2023-02-28T11:24:36;12.73;;;6.03;;
71038;SDS011;58692;43.212;27.908;2023-02-28T11:34:53;12.70;;;6.47;;
71038;SDS011;58692;43.212;27.908;2023-02-28T11:37:48;12.40;;;6.18;;
71038;SDS011;58692;43.212;27.908;2023-02-28T11:40:25;14.40;;;6.07;;
71038;SDS011;58692;43.212;27.908;2023-02-28T11:46:34;12.43;;;6.18;;
71038;SDS011;58692;43.212;27.908;2023-02-28T11:49:18;11.30;;;5.55;;
71038;SDS011;58692;43.212;27.908;2023-02-28T11:57:56;10.52;;;5.55;;
71038;SDS011;58692;43.212;27.908;2023-02-28T12:00:37;13.82;;;5.75;;
71038;SDS011;58692;43.212;27.908;2023-02-28T12:08:43;12.10;;;6.20;;
71038;SDS011;58692;43.212;27.908;2023-02-28T12:19:19;15.23;;;6.23;;
71038;SDS011;58692;43.212;27.908;2023-02-28T12:22:19;11.98;;;6.32;;
71038;SDS011;58692;43.212;27.908;2023-02-28T12:24:59;13.00;;;6.13;;
71038;SDS011;58692;43.212;27.908;2023-02-28T12:27:51;11.85;;;6.30;;
71038;SDS011;58692;43.212;27.908;2023-02-28T12:30:21;13.30;;;6.10;;
71038;SDS011;58692;43.212;27.908;2023-02-28T12:32:54;12.53;;;6.40;;
71038;SDS011;58692;43.212;27.908;2023-02-28T12:35:32;11.75;;;6.63;;
71038;SDS011;58692;43.212;27.908;2023-02-28T12:38:03;12.20;;;6.10;;
71038;SDS011;58692;43.212;27.908;2023-02-28T12:40:45;12.57;;;6.57;;
71038;SDS011;58692;43.212;27.908;2023-02-28T12:43:19;15.50;;;7.40;;
71038;SDS011;58692;43.212;27.908;2023-02-28T12:45:55;16.00;;;6.97;;
71038;SDS011;58692;43.212;27.908;2023-02-28T12:48:27;12.88;;;6.20;;
71038;SDS011;58692;43.212;27.908;2023-02-28T12:50:58;16.33;;;6.13;;
71038;SDS011;58692;43.212;27.908;2023-02-28T12:58:27;13.37;;;6.67;;
71038;SDS011;58692;43.212;27.908;2023-02-28T13:04:04;12.82;;;6.32;;
71038;SDS011;58692;43.212;27.908;2023-02-28T13:09:33;17.88;;;7.32;;
71038;SDS011;58692;43.212;27.908;2023-02-28T13:12:04;15.20;;;7.17;;
71038;SDS011;58692;43.212;27.908;2023-02-28T13:14:45;16.58;;;7.93;;
71038;SDS011;58692;43.212;27.908;2023-02-28T13:17:12;18.33;;;7.35;;
71038;SDS011;58692;43.212;27.908;2023-02-28T13:19:46;16.52;;;6.78;;
71038;SDS011;58692;43.212;27.908;2023-02-28T13:24:52;15.77;;;8.10;;
71038;SDS011;58692;43.212;27.908;2023-02-28T13:27:23;20.65;;;8.13;;
71038;SDS011;58692;43.212;27.908;2023-02-28T13:38:47;18.97;;;6.97;;
71038;SDS011;58692;43.212;27.908;2023-02-28T13:44:04;17.15;;;8.00;;
71038;SDS011;58692;43.212;27.908;2023-02-28T13:49:47;20.15;;;8.65;;
71038;SDS011;58692;43.212;27.908;2023-02-28T13:52:18;18.03;;;8.20;;
71038;SDS011;58692;43.212;27.908;2023-02-28T14:03:03;19.63;;;7.93;;
71038;SDS011;58692;43.212;27.908;2023-02-28T14:05:34;19.13;;;8.10;;
71038;SDS011;58692;43.212;27.908;2023-02-28T14:08:26;17.70;;;8.13;;
71038;SDS011;58692;43.212;27.908;2023-02-28T14:11:08;17.70;;;7.97;;
71038;SDS011;58692;43.212;27.908;2023-02-28T14:17:31;16.48;;;7.57;;
71038;SDS011;58692;43.212;27.908;2023-02-28T14:19:57;14.97;;;7.03;;
71038;SDS011;58692;43.212;27.908;2023-02-28T14:28:03;17.75;;;8.48;;
71038;SDS011;58692;43.212;27.908;2023-02-28T14:30:47;17.67;;;8.47;;
71038;SDS011;58692;43.212;27.908;2023-02-28T14:33:53;16.88;;;7.85;;
71038;SDS011;58692;43.212;27.908;2023-02-28T14:36:36;18.05;;;8.68;;
71038;SDS011;58692;43.212;27.908;2023-02-28T14:39:13;19.58;;;8.10;;
71038;SDS011;58692;43.212;27.908;2023-02-28T14:41:44;20.08;;;8.95;;
71038;SDS011;58692;43.212;27.908;2023-02-28T14:44:19;19.40;;;8.30;;
71038;SDS011;58692;43.212;27.908;2023-02-28T14:46:53;17.75;;;6.68;;
71038;SDS011;58692;43.212;27.908;2023-02-28T14:49:51;16.85;;;7.88;;
71038;SDS011;58692;43.212;27.908;2023-02-28T14:52:47;20.50;;;8.63;;
71038;SDS011;58692;43.212;27.908;2023-02-28T14:55:18;18.80;;;8.57;;
71038;SDS011;58692;43.212;27.908;2023-02-28T14:57:52;18.03;;;8.47;;
71038;SDS011;58692;43.212;27.908;2023-02-28T15:00:42;16.52;;;8.00;;
71038;SDS011;58692;43.212;27.908;2023-02-28T15:05:58;18.85;;;8.40;;
71038;SDS011;58692;43.212;27.908;2023-02-28T15:08:28;18.65;;;7.97;;
71038;SDS011;58692;43.212;27.908;2023-02-28T15:13:30;18.17;;;7.93;;
71038;SDS011;58692;43.212;27.908;2023-02-28T15:16:04;18.25;;;8.05;;
71038;SDS011;58692;43.212;27.908;2023-02-28T15:18:46;17.00;;;7.47;;
71038;SDS011;58692;43.212;27.908;2023-02-28T15:21:20;14.98;;;7.13;;
71038;SDS011;58692;43.212;27.908;2023-02-28T15:24:04;16.73;;;7.43;;
71038;SDS011;58692;43.212;27.908;2023-02-28T15:26:54;16.38;;;7.28;;
71038;SDS011;58692;43.212;27.908;2023-02-28T15:29:42;20.80;;;7.60;;
71038;SDS011;58692;43.212;27.908;2023-02-28T15:40:37;17.80;;;8.52;;
71038;SDS011;58692;43.212;27.908;2023-02-28T15:43:13;18.42;;;8.70;;
71038;SDS011;58692;43.212;27.908;2023-02-28T15:45:56;19.08;;;9.63;;
71038;SDS011;58692;43.212;27.908;2023-02-28T15:50:56;15.77;;;7.80;;
71038;SDS011;58692;43.212;27.908;2023-02-28T15:53:28;19.20;;;8.15;;
71038;SDS011;58692;43.212;27.908;2023-02-28T15:56:03;20.67;;;8.77;;
71038;SDS011;58692;43.212;27.908;2023-02-28T15:58:35;17.58;;;7.50;;
71038;SDS011;58692;43.212;27.908;2023-02-28T16:01:05;17.83;;;8.05;;
71038;SDS011;58692;43.212;27.908;2023-02-28T16:03:39;18.73;;;8.00;;
71038;SDS011;58692;43.212;27.908;2023-02-28T16:06:19;17.65;;;7.78;;
71038;SDS011;58692;43.212;27.908;2023-02-28T16:08:47;19.13;;;8.23;;
71038;SDS011;58692;43.212;27.908;2023-02-28T16:11:13;24.23;;;9.23;;
71038;SDS011;58692;43.212;27.908;2023-02-28T16:13:40;16.83;;;7.95;;
71038;SDS011;58692;43.212;27.908;2023-02-28T16:16:28;18.40;;;7.50;;
71038;SDS011;58692;43.212;27.908;2023-02-28T16:18:54;18.58;;;8.00;;
71038;SDS011;58692;43.212;27.908;2023-02-28T16:21:28;18.42;;;8.65;;
71038;SDS011;58692;43.212;27.908;2023-02-28T16:24:00;18.30;;;8.38;;
71038;SDS011;58692;43.212;27.908;2023-02-28T16:26:36;14.80;;;7.03;;
71038;SDS011;58692;43.212;27.908;2023-02-28T16:29:09;17.95;;;7.78;;
71038;SDS011;58692;43.212;27.908;2023-02-28T16:31:47;17.95;;;7.72;;
71038;SDS011;58692;43.212;27.908;2023-02-28T16:34:14;21.50;;;8.45;;
71038;SDS011;58692;43.212;27.908;2023-02-28T16:36:40;17.80;;;8.00;;
71038;SDS011;58692;43.212;27.908;2023-02-28T16:39:06;17.83;;;8.13;;
71038;SDS011;58692;43.212;27.908;2023-02-28T16:41:32;18.77;;;7.82;;
71038;SDS011;58692;43.212;27.908;2023-02-28T16:44:01;16.90;;;7.63;;
71038;SDS011;58692;43.212;27.908;2023-02-28T16:46:33;16.13;;;7.78;;
71038;SDS011;58692;43.212;27.908;2023-02-28T16:49:00;17.70;;;8.02;;
71038;SDS011;58692;43.212;27.908;2023-02-28T16:51:26;18.63;;;7.60;;
71038;SDS011;58692;43.212;27.908;2023-02-28T16:53:51;15.90;;;7.10;;
71038;SDS011;58692;43.212;27.908;2023-02-28T16:56:20;20.83;;;7.78;;
71038;SDS011;58692;43.212;27.908;2023-02-28T16:58:48;16.60;;;7.35;;
71038;SDS011;58692;43.212;27.908;2023-02-28T17:01:15;18.13;;;7.32;;
71038;SDS011;58692;43.212;27.908;2023-02-28T17:03:41;14.90;;;7.32;;
71038;SDS011;58692;43.212;27.908;2023-02-28T17:06:14;16.43;;;7.17;;
71038;SDS011;58692;43.212;27.908;2023-02-28T17:08:44;15.73;;;7.18;;
71038;SDS011;58692;43.212;27.908;2023-02-28T17:11:09;17.43;;;7.13;;
71038;SDS011;58692;43.212;27.908;2023-02-28T17:13:35;19.55;;;8.20;;
71038;SDS011;58692;43.212;27.908;2023-02-28T17:16:03;17.17;;;7.55;;
71038;SDS011;58692;43.212;27.908;2023-02-28T17:18:29;18.77;;;8.52;;
71038;SDS011;58692;43.212;27.908;2023-02-28T17:20:59;18.13;;;7.68;;
71038;SDS011;58692;43.212;27.908;2023-02-28T17:23:25;17.20;;;7.83;;
71038;SDS011;58692;43.212;27.908;2023-02-28T17:25:51;19.85;;;8.35;;
71038;SDS011;58692;43.212;27.908;2023-02-28T17:28:20;18.93;;;8.60;;
71038;SDS011;58692;43.212;27.908;2023-02-28T17:30:47;16.48;;;7.28;;
71038;SDS011;58692;43.212;27.908;2023-02-28T17:33:13;20.08;;;9.63;;